< Cyclone 197305 1973 Season Cyclone 197307 >
Cyclone 197306 (MAUD)
General InformationTrack Information on Google Maps || ResourceGoogle EarthGE AnimationAtom FeedGeoJSON
Detalied Best Track (Time Zone = UTC)
Year Month Day Hour Lat. Long. Pressure (hPa) Wind (kt) Class Image Chart
1973 1 28 01 -15.4 123.0 1002 0 0 -- --
1973 1 28 04 -15.6 122.7 1000 0 0 -- --
1973 1 28 07 -15.8 122.4 998 0 0 -- --
1973 1 28 10 -16.2 122.2 998 0 0 -- --
1973 1 28 13 -16.5 122.1 998 0 0 -- --
1973 1 28 16 -16.9 122.0 997 0 0 -- --
1973 1 28 19 -17.2 121.7 997 0 0 -- --
1973 1 28 22 -17.5 121.5 996 0 0 -- --
1973 1 29 01 -17.6 121.3 996 0 0 -- --
1973 1 29 04 -17.7 121.0 993 0 0 -- --
1973 1 29 07 -17.8 120.8 990 0 0 -- --
1973 1 29 10 -17.9 120.7 992 0 0 -- --
1973 1 29 13 -17.9 120.7 992 0 0 -- --
1973 1 29 16 -17.9 120.7 992 0 0 -- --
1973 1 29 19 -17.9 120.6 992 0 0 -- --
1973 1 29 22 -17.9 120.5 992 0 0 -- --
1973 1 30 01 -17.9 120.5 992 0 0 -- --
1973 1 30 04 -17.9 120.4 992 0 0 -- --
1973 1 30 07 -17.9 120.3 992 0 0 -- --
1973 1 30 10 -17.9 120.2 993 0 0 -- --
1973 1 30 13 -17.9 120.1 993 0 0 -- --
1973 1 30 16 -17.9 120.1 994 0 0 -- --
1973 1 30 19 -17.9 120.1 994 0 0 -- --
1973 1 30 22 -17.9 120.1 995 0 0 -- --
1973 1 31 01 -17.9 120.1 996 0 0 -- --
< Cyclone 197305 1973 Season Cyclone 197307 >

Help